sensor_id;sensor_type;location;lat;lon;timestamp;P1;durP1;ratioP1;P2;durP2;ratioP2
47167;SDS011;32931;47.778;17.806;2023-06-14T00:01:55;6.80;;;4.88;;
47167;SDS011;32931;47.778;17.806;2023-06-14T00:04:21;11.95;;;5.18;;
47167;SDS011;32931;47.778;17.806;2023-06-14T00:06:50;7.07;;;4.72;;
47167;SDS011;32931;47.778;17.806;2023-06-14T00:09:17;9.77;;;5.20;;
47167;SDS011;32931;47.778;17.806;2023-06-14T00:11:43;7.55;;;5.00;;
47167;SDS011;32931;47.778;17.806;2023-06-14T00:14:10;14.02;;;4.85;;
47167;SDS011;32931;47.778;17.806;2023-06-14T00:16:36;12.75;;;5.18;;
47167;SDS011;32931;47.778;17.806;2023-06-14T00:19:02;7.07;;;4.63;;
47167;SDS011;32931;47.778;17.806;2023-06-14T00:21:30;7.90;;;4.05;;
47167;SDS011;32931;47.778;17.806;2023-06-14T00:23:59;12.68;;;5.07;;
47167;SDS011;32931;47.778;17.806;2023-06-14T00:26:26;11.05;;;4.70;;
47167;SDS011;32931;47.778;17.806;2023-06-14T00:28:53;11.32;;;4.97;;
47167;SDS011;32931;47.778;17.806;2023-06-14T00:31:19;16.20;;;4.85;;
47167;SDS011;32931;47.778;17.806;2023-06-14T00:33:45;12.68;;;5.20;;
47167;SDS011;32931;47.778;17.806;2023-06-14T00:36:12;13.00;;;5.80;;
47167;SDS011;32931;47.778;17.806;2023-06-14T00:38:38;10.48;;;5.65;;
47167;SDS011;32931;47.778;17.806;2023-06-14T00:41:04;9.32;;;5.30;;
47167;SDS011;32931;47.778;17.806;2023-06-14T00:43:30;10.35;;;5.10;;
47167;SDS011;32931;47.778;17.806;2023-06-14T00:45:56;13.95;;;5.40;;
47167;SDS011;32931;47.778;17.806;2023-06-14T00:48:24;12.20;;;5.88;;
47167;SDS011;32931;47.778;17.806;2023-06-14T00:50:50;13.25;;;5.35;;
47167;SDS011;32931;47.778;17.806;2023-06-14T00:53:18;11.73;;;5.30;;
47167;SDS011;32931;47.778;17.806;2023-06-14T00:55:48;9.63;;;5.43;;
47167;SDS011;32931;47.778;17.806;2023-06-14T00:58:14;9.07;;;5.03;;
47167;SDS011;32931;47.778;17.806;2023-06-14T01:00:41;12.07;;;5.65;;
47167;SDS011;32931;47.778;17.806;2023-06-14T01:03:07;9.15;;;5.70;;
47167;SDS011;32931;47.778;17.806;2023-06-14T01:05:37;13.10;;;5.82;;
47167;SDS011;32931;47.778;17.806;2023-06-14T01:11:10;10.13;;;5.18;;
47167;SDS011;32931;47.778;17.806;2023-06-14T01:13:42;10.55;;;5.53;;
47167;SDS011;32931;47.778;17.806;2023-06-14T01:16:11;16.10;;;5.45;;
47167;SDS011;32931;47.778;17.806;2023-06-14T01:18:37;10.60;;;5.13;;
47167;SDS011;32931;47.778;17.806;2023-06-14T01:21:04;7.65;;;5.22;;
47167;SDS011;32931;47.778;17.806;2023-06-14T01:23:34;9.15;;;4.57;;
47167;SDS011;32931;47.778;17.806;2023-06-14T01:26:00;12.20;;;5.38;;
47167;SDS011;32931;47.778;17.806;2023-06-14T01:28:28;10.38;;;4.80;;
47167;SDS011;32931;47.778;17.806;2023-06-14T01:31:00;9.35;;;5.07;;
47167;SDS011;32931;47.778;17.806;2023-06-14T01:33:30;6.72;;;4.70;;
47167;SDS011;32931;47.778;17.806;2023-06-14T01:35:58;10.07;;;5.00;;
47167;SDS011;32931;47.778;17.806;2023-06-14T01:38:25;15.90;;;5.60;;
47167;SDS011;32931;47.778;17.806;2023-06-14T01:40:54;8.00;;;4.57;;
47167;SDS011;32931;47.778;17.806;2023-06-14T01:43:23;6.35;;;4.50;;
47167;SDS011;32931;47.778;17.806;2023-06-14T01:45:51;14.45;;;5.65;;
47167;SDS011;32931;47.778;17.806;2023-06-14T01:48:19;9.00;;;4.38;;
47167;SDS011;32931;47.778;17.806;2023-06-14T01:50:46;8.60;;;4.88;;
47167;SDS011;32931;47.778;17.806;2023-06-14T01:53:14;9.02;;;4.75;;
47167;SDS011;32931;47.778;17.806;2023-06-14T01:55:40;9.25;;;4.78;;
47167;SDS011;32931;47.778;17.806;2023-06-14T01:58:09;10.35;;;4.80;;
47167;SDS011;32931;47.778;17.806;2023-06-14T02:00:38;10.68;;;4.65;;
47167;SDS011;32931;47.778;17.806;2023-06-14T02:03:05;9.15;;;4.60;;
47167;SDS011;32931;47.778;17.806;2023-06-14T02:05:32;11.55;;;4.55;;
47167;SDS011;32931;47.778;17.806;2023-06-14T02:08:00;10.43;;;4.57;;
47167;SDS011;32931;47.778;17.806;2023-06-14T02:10:26;12.48;;;4.55;;
47167;SDS011;32931;47.778;17.806;2023-06-14T02:12:52;8.60;;;4.38;;
47167;SDS011;32931;47.778;17.806;2023-06-14T02:15:19;11.05;;;4.82;;
47167;SDS011;32931;47.778;17.806;2023-06-14T02:17:47;8.95;;;4.85;;
47167;SDS011;32931;47.778;17.806;2023-06-14T02:20:14;7.88;;;4.32;;
47167;SDS011;32931;47.778;17.806;2023-06-14T02:22:41;7.05;;;4.07;;
47167;SDS011;32931;47.778;17.806;2023-06-14T02:25:07;6.68;;;4.50;;
47167;SDS011;32931;47.778;17.806;2023-06-14T02:27:34;8.15;;;4.82;;
47167;SDS011;32931;47.778;17.806;2023-06-14T02:30:00;9.10;;;4.35;;
47167;SDS011;32931;47.778;17.806;2023-06-14T02:32:27;14.50;;;4.35;;
47167;SDS011;32931;47.778;17.806;2023-06-14T02:34:53;15.32;;;4.38;;
47167;SDS011;32931;47.778;17.806;2023-06-14T02:37:20;12.52;;;4.65;;
47167;SDS011;32931;47.778;17.806;2023-06-14T02:39:46;15.63;;;4.40;;
47167;SDS011;32931;47.778;17.806;2023-06-14T02:42:12;14.50;;;4.60;;
47167;SDS011;32931;47.778;17.806;2023-06-14T02:44:38;17.83;;;4.90;;
47167;SDS011;32931;47.778;17.806;2023-06-14T02:47:05;13.88;;;4.60;;
47167;SDS011;32931;47.778;17.806;2023-06-14T02:49:31;11.00;;;4.22;;
47167;SDS011;32931;47.778;17.806;2023-06-14T02:51:57;13.35;;;5.38;;
47167;SDS011;32931;47.778;17.806;2023-06-14T02:54:24;16.75;;;4.63;;
47167;SDS011;32931;47.778;17.806;2023-06-14T02:56:50;10.93;;;4.57;;
47167;SDS011;32931;47.778;17.806;2023-06-14T02:59:16;10.07;;;4.53;;
47167;SDS011;32931;47.778;17.806;2023-06-14T03:01:42;7.97;;;4.30;;
47167;SDS011;32931;47.778;17.806;2023-06-14T03:04:08;11.05;;;4.72;;
47167;SDS011;32931;47.778;17.806;2023-06-14T03:06:35;7.03;;;3.80;;
47167;SDS011;32931;47.778;17.806;2023-06-14T03:09:02;8.38;;;4.35;;
47167;SDS011;32931;47.778;17.806;2023-06-14T03:11:32;9.18;;;4.22;;
47167;SDS011;32931;47.778;17.806;2023-06-14T03:14:00;16.55;;;4.70;;
47167;SDS011;32931;47.778;17.806;2023-06-14T03:16:29;9.68;;;4.70;;
47167;SDS011;32931;47.778;17.806;2023-06-14T03:18:55;12.20;;;4.85;;
47167;SDS011;32931;47.778;17.806;2023-06-14T03:21:21;14.07;;;4.35;;
47167;SDS011;32931;47.778;17.806;2023-06-14T03:23:48;12.80;;;5.13;;
47167;SDS011;32931;47.778;17.806;2023-06-14T03:26:14;9.68;;;4.63;;
47167;SDS011;32931;47.778;17.806;2023-06-14T03:28:43;13.63;;;4.38;;
47167;SDS011;32931;47.778;17.806;2023-06-14T03:31:11;11.40;;;4.20;;
47167;SDS011;32931;47.778;17.806;2023-06-14T03:33:38;6.50;;;4.20;;
47167;SDS011;32931;47.778;17.806;2023-06-14T03:36:05;12.43;;;4.50;;
47167;SDS011;32931;47.778;17.806;2023-06-14T03:38:32;19.70;;;4.93;;
47167;SDS011;32931;47.778;17.806;2023-06-14T03:40:58;13.80;;;5.40;;
47167;SDS011;32931;47.778;17.806;2023-06-14T03:43:25;8.13;;;4.15;;
47167;SDS011;32931;47.778;17.806;2023-06-14T03:45:51;7.63;;;4.80;;
47167;SDS011;32931;47.778;17.806;2023-06-14T03:48:17;18.90;;;5.30;;
47167;SDS011;32931;47.778;17.806;2023-06-14T03:50:43;16.08;;;5.15;;
47167;SDS011;32931;47.778;17.806;2023-06-14T03:53:10;17.58;;;5.70;;
47167;SDS011;32931;47.778;17.806;2023-06-14T03:55:36;15.88;;;6.00;;
47167;SDS011;32931;47.778;17.806;2023-06-14T03:58:03;15.85;;;6.18;;
47167;SDS011;32931;47.778;17.806;2023-06-14T04:00:29;13.40;;;5.45;;
47167;SDS011;32931;47.778;17.806;2023-06-14T04:02:55;13.02;;;5.30;;
47167;SDS011;32931;47.778;17.806;2023-06-14T04:05:21;21.83;;;5.40;;
47167;SDS011;32931;47.778;17.806;2023-06-14T04:07:51;14.43;;;5.30;;
47167;SDS011;32931;47.778;17.806;2023-06-14T04:10:21;16.65;;;5.90;;
47167;SDS011;32931;47.778;17.806;2023-06-14T04:12:47;8.75;;;5.15;;
47167;SDS011;32931;47.778;17.806;2023-06-14T04:15:13;13.75;;;6.05;;
47167;SDS011;32931;47.778;17.806;2023-06-14T04:17:39;11.63;;;5.80;;
47167;SDS011;32931;47.778;17.806;2023-06-14T04:20:06;12.05;;;5.18;;
47167;SDS011;32931;47.778;17.806;2023-06-14T04:22:35;8.15;;;4.97;;
47167;SDS011;32931;47.778;17.806;2023-06-14T04:25:01;9.25;;;5.53;;
47167;SDS011;32931;47.778;17.806;2023-06-14T04:27:28;10.85;;;5.47;;
47167;SDS011;32931;47.778;17.806;2023-06-14T04:29:56;13.50;;;5.45;;
47167;SDS011;32931;47.778;17.806;2023-06-14T04:32:24;15.25;;;4.93;;
47167;SDS011;32931;47.778;17.806;2023-06-14T04:34:54;9.57;;;5.45;;
47167;SDS011;32931;47.778;17.806;2023-06-14T04:37:21;11.13;;;5.10;;
47167;SDS011;32931;47.778;17.806;2023-06-14T04:39:48;18.20;;;5.45;;
47167;SDS011;32931;47.778;17.806;2023-06-14T04:42:14;13.10;;;4.60;;
47167;SDS011;32931;47.778;17.806;2023-06-14T04:44:42;11.57;;;4.82;;
47167;SDS011;32931;47.778;17.806;2023-06-14T04:47:09;15.43;;;5.00;;
47167;SDS011;32931;47.778;17.806;2023-06-14T04:49:38;14.32;;;5.85;;
47167;SDS011;32931;47.778;17.806;2023-06-14T04:52:05;13.45;;;5.40;;
47167;SDS011;32931;47.778;17.806;2023-06-14T04:54:33;19.98;;;5.03;;
47167;SDS011;32931;47.778;17.806;2023-06-14T04:56:59;14.50;;;5.03;;
47167;SDS011;32931;47.778;17.806;2023-06-14T04:59:25;12.88;;;4.95;;
47167;SDS011;32931;47.778;17.806;2023-06-14T05:01:51;14.18;;;4.63;;
47167;SDS011;32931;47.778;17.806;2023-06-14T05:04:18;9.77;;;5.10;;
47167;SDS011;32931;47.778;17.806;2023-06-14T05:06:47;15.98;;;4.93;;
47167;SDS011;32931;47.778;17.806;2023-06-14T05:09:15;18.88;;;5.03;;
47167;SDS011;32931;47.778;17.806;2023-06-14T05:11:42;21.08;;;5.40;;
47167;SDS011;32931;47.778;17.806;2023-06-14T05:14:10;12.82;;;5.30;;
47167;SDS011;32931;47.778;17.806;2023-06-14T05:16:36;14.50;;;4.60;;
47167;SDS011;32931;47.778;17.806;2023-06-14T05:19:03;23.40;;;5.82;;
47167;SDS011;32931;47.778;17.806;2023-06-14T05:21:32;12.52;;;5.82;;
47167;SDS011;32931;47.778;17.806;2023-06-14T05:24:01;12.40;;;4.75;;
47167;SDS011;32931;47.778;17.806;2023-06-14T05:26:27;29.65;;;5.30;;
47167;SDS011;32931;47.778;17.806;2023-06-14T05:28:57;14.52;;;5.07;;
47167;SDS011;32931;47.778;17.806;2023-06-14T05:31:24;17.02;;;5.20;;
47167;SDS011;32931;47.778;17.806;2023-06-14T05:33:51;10.15;;;5.30;;
47167;SDS011;32931;47.778;17.806;2023-06-14T05:36:18;19.77;;;4.85;;
47167;SDS011;32931;47.778;17.806;2023-06-14T05:38:45;15.98;;;4.75;;
47167;SDS011;32931;47.778;17.806;2023-06-14T05:41:11;8.55;;;4.50;;
47167;SDS011;32931;47.778;17.806;2023-06-14T05:43:38;13.57;;;4.95;;
47167;SDS011;32931;47.778;17.806;2023-06-14T05:46:04;12.50;;;4.90;;
47167;SDS011;32931;47.778;17.806;2023-06-14T05:48:30;13.45;;;4.75;;
47167;SDS011;32931;47.778;17.806;2023-06-14T05:50:57;10.93;;;4.82;;
47167;SDS011;32931;47.778;17.806;2023-06-14T05:53:24;14.65;;;4.40;;
47167;SDS011;32931;47.778;17.806;2023-06-14T05:55:50;13.07;;;4.85;;
47167;SDS011;32931;47.778;17.806;2023-06-14T05:58:19;12.80;;;4.78;;
47167;SDS011;32931;47.778;17.806;2023-06-14T06:00:45;14.45;;;5.10;;
47167;SDS011;32931;47.778;17.806;2023-06-14T06:03:11;9.48;;;4.32;;
47167;SDS011;32931;47.778;17.806;2023-06-14T06:05:38;11.60;;;4.68;;
47167;SDS011;32931;47.778;17.806;2023-06-14T06:08:05;13.63;;;5.28;;
47167;SDS011;32931;47.778;17.806;2023-06-14T06:10:31;8.27;;;4.07;;
47167;SDS011;32931;47.778;17.806;2023-06-14T06:12:57;7.18;;;4.55;;
47167;SDS011;32931;47.778;17.806;2023-06-14T06:15:23;14.90;;;4.90;;
47167;SDS011;32931;47.778;17.806;2023-06-14T06:17:50;10.63;;;4.32;;
47167;SDS011;32931;47.778;17.806;2023-06-14T06:20:16;12.52;;;4.88;;
47167;SDS011;32931;47.778;17.806;2023-06-14T06:22:43;6.53;;;4.50;;
47167;SDS011;32931;47.778;17.806;2023-06-14T06:25:09;13.80;;;5.00;;
47167;SDS011;32931;47.778;17.806;2023-06-14T06:27:35;8.75;;;4.93;;
47167;SDS011;32931;47.778;17.806;2023-06-14T06:30:03;9.32;;;5.70;;
47167;SDS011;32931;47.778;17.806;2023-06-14T06:32:29;10.15;;;5.05;;
47167;SDS011;32931;47.778;17.806;2023-06-14T06:34:55;8.43;;;4.57;;
47167;SDS011;32931;47.778;17.806;2023-06-14T06:37:22;11.85;;;5.53;;
47167;SDS011;32931;47.778;17.806;2023-06-14T06:39:48;9.20;;;5.07;;
47167;SDS011;32931;47.778;17.806;2023-06-14T06:42:14;10.70;;;4.82;;
47167;SDS011;32931;47.778;17.806;2023-06-14T06:44:40;10.50;;;5.03;;
47167;SDS011;32931;47.778;17.806;2023-06-14T06:47:06;12.45;;;5.03;;
47167;SDS011;32931;47.778;17.806;2023-06-14T06:49:32;15.63;;;4.80;;
47167;SDS011;32931;47.778;17.806;2023-06-14T06:52:02;10.77;;;5.03;;
47167;SDS011;32931;47.778;17.806;2023-06-14T06:54:30;13.30;;;5.28;;
47167;SDS011;32931;47.778;17.806;2023-06-14T06:56:56;8.63;;;4.90;;
47167;SDS011;32931;47.778;17.806;2023-06-14T06:59:23;12.10;;;5.03;;
47167;SDS011;32931;47.778;17.806;2023-06-14T07:01:49;12.52;;;5.28;;
47167;SDS011;32931;47.778;17.806;2023-06-14T07:04:15;12.02;;;5.25;;
47167;SDS011;32931;47.778;17.806;2023-06-14T07:06:41;9.73;;;5.70;;
47167;SDS011;32931;47.778;17.806;2023-06-14T07:09:08;9.32;;;5.32;;
47167;SDS011;32931;47.778;17.806;2023-06-14T07:11:39;13.77;;;5.40;;
47167;SDS011;32931;47.778;17.806;2023-06-14T07:14:06;28.08;;;6.13;;
47167;SDS011;32931;47.778;17.806;2023-06-14T07:16:32;11.82;;;5.13;;
47167;SDS011;32931;47.778;17.806;2023-06-14T07:18:58;12.57;;;5.53;;
47167;SDS011;32931;47.778;17.806;2023-06-14T07:21:25;11.30;;;5.90;;
47167;SDS011;32931;47.778;17.806;2023-06-14T07:23:55;13.95;;;5.45;;
47167;SDS011;32931;47.778;17.806;2023-06-14T07:26:21;11.25;;;5.57;;
47167;SDS011;32931;47.778;17.806;2023-06-14T07:28:48;18.85;;;5.32;;
47167;SDS011;32931;47.778;17.806;2023-06-14T07:31:15;16.83;;;5.53;;
47167;SDS011;32931;47.778;17.806;2023-06-14T07:33:42;15.43;;;5.20;;
47167;SDS011;32931;47.778;17.806;2023-06-14T07:36:08;15.45;;;5.22;;
47167;SDS011;32931;47.778;17.806;2023-06-14T07:38:34;10.75;;;5.32;;
47167;SDS011;32931;47.778;17.806;2023-06-14T07:41:02;8.90;;;5.18;;
47167;SDS011;32931;47.778;17.806;2023-06-14T07:43:28;16.30;;;5.32;;
47167;SDS011;32931;47.778;17.806;2023-06-14T07:45:54;13.35;;;5.40;;
47167;SDS011;32931;47.778;17.806;2023-06-14T07:48:22;14.25;;;5.13;;
47167;SDS011;32931;47.778;17.806;2023-06-14T07:50:48;10.68;;;5.35;;
47167;SDS011;32931;47.778;17.806;2023-06-14T07:53:14;8.50;;;5.35;;
47167;SDS011;32931;47.778;17.806;2023-06-14T07:55:40;11.05;;;6.88;;
47167;SDS011;32931;47.778;17.806;2023-06-14T07:58:08;10.40;;;6.30;;
47167;SDS011;32931;47.778;17.806;2023-06-14T08:00:35;13.32;;;7.15;;
47167;SDS011;32931;47.778;17.806;2023-06-14T08:03:02;21.52;;;7.55;;
47167;SDS011;32931;47.778;17.806;2023-06-14T08:05:29;21.65;;;8.05;;
47167;SDS011;32931;47.778;17.806;2023-06-14T08:07:55;13.60;;;6.88;;
47167;SDS011;32931;47.778;17.806;2023-06-14T08:10:22;17.95;;;7.22;;
47167;SDS011;32931;47.778;17.806;2023-06-14T08:12:48;16.10;;;7.22;;
47167;SDS011;32931;47.778;17.806;2023-06-14T08:15:15;13.65;;;6.38;;
47167;SDS011;32931;47.778;17.806;2023-06-14T08:17:45;12.75;;;7.03;;
47167;SDS011;32931;47.778;17.806;2023-06-14T08:20:11;16.63;;;7.43;;
47167;SDS011;32931;47.778;17.806;2023-06-14T08:22:39;14.85;;;7.55;;
47167;SDS011;32931;47.778;17.806;2023-06-14T08:25:08;12.35;;;6.88;;
47167;SDS011;32931;47.778;17.806;2023-06-14T08:27:35;13.18;;;6.65;;
47167;SDS011;32931;47.778;17.806;2023-06-14T08:30:01;14.27;;;6.47;;
47167;SDS011;32931;47.778;17.806;2023-06-14T08:32:28;15.45;;;6.55;;
47167;SDS011;32931;47.778;17.806;2023-06-14T08:34:54;16.38;;;7.20;;
47167;SDS011;32931;47.778;17.806;2023-06-14T08:37:21;11.10;;;6.75;;
47167;SDS011;32931;47.778;17.806;2023-06-14T08:39:47;13.52;;;6.50;;
47167;SDS011;32931;47.778;17.806;2023-06-14T08:42:14;13.85;;;5.97;;
47167;SDS011;32931;47.778;17.806;2023-06-14T08:44:41;13.75;;;6.28;;
47167;SDS011;32931;47.778;17.806;2023-06-14T08:47:07;11.20;;;6.00;;
47167;SDS011;32931;47.778;17.806;2023-06-14T08:49:36;11.70;;;5.75;;
47167;SDS011;32931;47.778;17.806;2023-06-14T08:52:06;10.35;;;5.72;;
47167;SDS011;32931;47.778;17.806;2023-06-14T08:54:36;10.68;;;6.03;;
47167;SDS011;32931;47.778;17.806;2023-06-14T08:57:06;9.05;;;5.65;;
47167;SDS011;32931;47.778;17.806;2023-06-14T08:59:33;10.60;;;5.38;;
47167;SDS011;32931;47.778;17.806;2023-06-14T09:02:05;12.68;;;5.85;;
47167;SDS011;32931;47.778;17.806;2023-06-14T09:04:32;13.50;;;6.20;;
47167;SDS011;32931;47.778;17.806;2023-06-14T09:06:59;13.70;;;5.70;;
47167;SDS011;32931;47.778;17.806;2023-06-14T09:09:26;7.53;;;5.50;;
47167;SDS011;32931;47.778;17.806;2023-06-14T09:11:52;18.90;;;6.28;;
47167;SDS011;32931;47.778;17.806;2023-06-14T09:16:54;10.55;;;5.85;;
47167;SDS011;32931;47.778;17.806;2023-06-14T09:19:23;10.70;;;5.65;;
47167;SDS011;32931;47.778;17.806;2023-06-14T09:21:50;10.43;;;5.60;;
47167;SDS011;32931;47.778;17.806;2023-06-14T09:24:18;13.13;;;5.47;;
47167;SDS011;32931;47.778;17.806;2023-06-14T09:26:48;15.63;;;5.35;;
47167;SDS011;32931;47.778;17.806;2023-06-14T09:29:16;6.70;;;4.72;;
47167;SDS011;32931;47.778;17.806;2023-06-14T09:31:45;10.73;;;5.25;;
47167;SDS011;32931;47.778;17.806;2023-06-14T09:34:12;11.75;;;5.30;;
47167;SDS011;32931;47.778;17.806;2023-06-14T09:36:39;9.00;;;4.75;;
47167;SDS011;32931;47.778;17.806;2023-06-14T09:39:08;6.40;;;4.78;;
47167;SDS011;32931;47.778;17.806;2023-06-14T09:41:35;12.68;;;4.82;;
47167;SDS011;32931;47.778;17.806;2023-06-14T09:44:04;10.23;;;5.18;;
47167;SDS011;32931;47.778;17.806;2023-06-14T09:46:32;10.55;;;5.20;;
47167;SDS011;32931;47.778;17.806;2023-06-14T09:48:59;11.70;;;5.45;;
47167;SDS011;32931;47.778;17.806;2023-06-14T09:51:27;9.65;;;4.85;;
47167;SDS011;32931;47.778;17.806;2023-06-14T09:53:59;11.98;;;4.95;;
47167;SDS011;32931;47.778;17.806;2023-06-14T09:56:34;9.90;;;5.63;;
47167;SDS011;32931;47.778;17.806;2023-06-14T09:59:04;9.65;;;4.70;;
47167;SDS011;32931;47.778;17.806;2023-06-14T10:01:33;11.85;;;4.10;;
47167;SDS011;32931;47.778;17.806;2023-06-14T10:04:02;5.75;;;3.65;;
47167;SDS011;32931;47.778;17.806;2023-06-14T10:06:30;9.18;;;3.97;;
47167;SDS011;32931;47.778;17.806;2023-06-14T10:08:58;5.45;;;3.35;;
47167;SDS011;32931;47.778;17.806;2023-06-14T10:11:25;5.20;;;2.75;;
47167;SDS011;32931;47.778;17.806;2023-06-14T10:13:53;6.70;;;2.70;;
47167;SDS011;32931;47.778;17.806;2023-06-14T10:21:38;3.45;;;1.90;;
47167;SDS011;32931;47.778;17.806;2023-06-14T10:24:12;3.63;;;2.20;;
47167;SDS011;32931;47.778;17.806;2023-06-14T10:26:51;3.55;;;2.10;;
47167;SDS011;32931;47.778;17.806;2023-06-14T10:29:19;8.25;;;2.75;;
47167;SDS011;32931;47.778;17.806;2023-06-14T10:32:06;3.78;;;2.20;;
47167;SDS011;32931;47.778;17.806;2023-06-14T10:34:32;9.38;;;2.80;;
47167;SDS011;32931;47.778;17.806;2023-06-14T10:37:02;4.18;;;2.00;;
47167;SDS011;32931;47.778;17.806;2023-06-14T10:39:43;4.25;;;2.40;;
47167;SDS011;32931;47.778;17.806;2023-06-14T10:42:14;4.13;;;2.35;;
47167;SDS011;32931;47.778;17.806;2023-06-14T10:44:41;6.90;;;1.95;;
47167;SDS011;32931;47.778;17.806;2023-06-14T10:49:54;4.18;;;2.30;;
47167;SDS011;32931;47.778;17.806;2023-06-14T10:52:23;7.90;;;2.63;;
47167;SDS011;32931;47.778;17.806;2023-06-14T10:55:09;6.05;;;1.95;;
47167;SDS011;32931;47.778;17.806;2023-06-14T11:00:11;6.13;;;2.83;;
47167;SDS011;32931;47.778;17.806;2023-06-14T11:02:46;9.98;;;2.50;;
47167;SDS011;32931;47.778;17.806;2023-06-14T11:05:52;4.55;;;2.58;;
47167;SDS011;32931;47.778;17.806;2023-06-14T11:11:23;3.95;;;2.17;;
47167;SDS011;32931;47.778;17.806;2023-06-14T11:13:55;3.80;;;2.57;;
47167;SDS011;32931;47.778;17.806;2023-06-14T11:16:22;5.68;;;2.45;;
47167;SDS011;32931;47.778;17.806;2023-06-14T11:18:53;10.23;;;2.40;;
47167;SDS011;32931;47.778;17.806;2023-06-14T11:21:20;5.97;;;2.17;;
47167;SDS011;32931;47.778;17.806;2023-06-14T11:23:50;4.60;;;2.33;;
47167;SDS011;32931;47.778;17.806;2023-06-14T11:26:39;2.88;;;2.13;;
47167;SDS011;32931;47.778;17.806;2023-06-14T11:29:03;4.95;;;2.22;;
47167;SDS011;32931;47.778;17.806;2023-06-14T11:31:30;6.72;;;2.47;;
47167;SDS011;32931;47.778;17.806;2023-06-14T11:33:59;4.28;;;2.33;;
47167;SDS011;32931;47.778;17.806;2023-06-14T11:36:26;4.35;;;2.30;;
47167;SDS011;32931;47.778;17.806;2023-06-14T11:39:05;5.68;;;2.40;;
47167;SDS011;32931;47.778;17.806;2023-06-14T11:41:36;4.75;;;2.10;;
47167;SDS011;32931;47.778;17.806;2023-06-14T11:44:07;6.25;;;2.25;;
47167;SDS011;32931;47.778;17.806;2023-06-14T11:46:34;7.22;;;2.40;;
47167;SDS011;32931;47.778;17.806;2023-06-14T11:49:00;4.07;;;2.40;;
47167;SDS011;32931;47.778;17.806;2023-06-14T11:51:33;5.53;;;2.33;;
47167;SDS011;32931;47.778;17.806;2023-06-14T11:54:03;6.03;;;2.58;;
47167;SDS011;32931;47.778;17.806;2023-06-14T11:56:31;4.68;;;2.55;;
47167;SDS011;32931;47.778;17.806;2023-06-14T11:58:58;8.85;;;2.42;;
47167;SDS011;32931;47.778;17.806;2023-06-14T12:01:24;3.47;;;2.50;;
47167;SDS011;32931;47.778;17.806;2023-06-14T12:03:52;6.95;;;2.55;;
47167;SDS011;32931;47.778;17.806;2023-06-14T12:06:26;3.90;;;2.20;;
47167;SDS011;32931;47.778;17.806;2023-06-14T12:08:59;3.97;;;2.30;;
47167;SDS011;32931;47.778;17.806;2023-06-14T12:11:34;5.93;;;2.03;;
47167;SDS011;32931;47.778;17.806;2023-06-14T12:14:02;4.32;;;2.35;;
47167;SDS011;32931;47.778;17.806;2023-06-14T12:16:30;7.10;;;2.20;;
47167;SDS011;32931;47.778;17.806;2023-06-14T12:19:08;2.95;;;2.08;;
47167;SDS011;32931;47.778;17.806;2023-06-14T12:21:38;4.15;;;2.00;;
47167;SDS011;32931;47.778;17.806;2023-06-14T12:24:08;4.30;;;2.25;;
47167;SDS011;32931;47.778;17.806;2023-06-14T12:26:37;8.65;;;2.30;;
47167;SDS011;32931;47.778;17.806;2023-06-14T12:29:05;4.65;;;2.22;;
47167;SDS011;32931;47.778;17.806;2023-06-14T12:31:32;4.85;;;2.30;;
47167;SDS011;32931;47.778;17.806;2023-06-14T12:33:59;4.50;;;2.50;;
47167;SDS011;32931;47.778;17.806;2023-06-14T12:36:25;5.95;;;2.40;;
47167;SDS011;32931;47.778;17.806;2023-06-14T12:38:52;6.25;;;2.28;;
47167;SDS011;32931;47.778;17.806;2023-06-14T12:41:20;7.07;;;2.28;;
47167;SDS011;32931;47.778;17.806;2023-06-14T12:43:48;5.78;;;2.30;;
47167;SDS011;32931;47.778;17.806;2023-06-14T12:46:14;8.02;;;2.33;;
47167;SDS011;32931;47.778;17.806;2023-06-14T12:48:40;5.82;;;2.58;;
47167;SDS011;32931;47.778;17.806;2023-06-14T12:51:06;6.80;;;2.67;;
47167;SDS011;32931;47.778;17.806;2023-06-14T12:53:32;5.53;;;2.50;;
47167;SDS011;32931;47.778;17.806;2023-06-14T12:55:58;3.75;;;2.30;;
47167;SDS011;32931;47.778;17.806;2023-06-14T12:58:25;8.00;;;2.58;;
47167;SDS011;32931;47.778;17.806;2023-06-14T13:00:51;8.32;;;2.47;;
47167;SDS011;32931;47.778;17.806;2023-06-14T13:03:17;4.78;;;2.70;;
47167;SDS011;32931;47.778;17.806;2023-06-14T13:05:44;4.32;;;2.30;;
47167;SDS011;32931;47.778;17.806;2023-06-14T13:08:10;6.75;;;2.63;;
47167;SDS011;32931;47.778;17.806;2023-06-14T13:10:37;5.57;;;2.20;;
47167;SDS011;32931;47.778;17.806;2023-06-14T13:13:03;4.13;;;2.00;;
47167;SDS011;32931;47.778;17.806;2023-06-14T13:15:29;4.43;;;2.50;;
47167;SDS011;32931;47.778;17.806;2023-06-14T13:17:55;6.57;;;2.38;;
47167;SDS011;32931;47.778;17.806;2023-06-14T13:20:22;8.27;;;2.40;;
47167;SDS011;32931;47.778;17.806;2023-06-14T13:22:48;4.47;;;2.60;;
47167;SDS011;32931;47.778;17.806;2023-06-14T13:25:14;9.13;;;2.55;;
47167;SDS011;32931;47.778;17.806;2023-06-14T13:27:41;3.13;;;2.00;;
47167;SDS011;32931;47.778;17.806;2023-06-14T13:30:07;5.97;;;2.55;;
47167;SDS011;32931;47.778;17.806;2023-06-14T13:32:34;3.70;;;2.17;;
47167;SDS011;32931;47.778;17.806;2023-06-14T13:35:01;5.72;;;2.47;;
47167;SDS011;32931;47.778;17.806;2023-06-14T13:37:27;4.47;;;2.30;;
47167;SDS011;32931;47.778;17.806;2023-06-14T13:39:55;10.50;;;2.67;;
47167;SDS011;32931;47.778;17.806;2023-06-14T13:42:21;6.13;;;2.40;;
47167;SDS011;32931;47.778;17.806;2023-06-14T13:44:47;6.43;;;2.85;;
47167;SDS011;32931;47.778;17.806;2023-06-14T13:47:13;5.15;;;2.30;;
47167;SDS011;32931;47.778;17.806;2023-06-14T13:49:39;7.53;;;2.63;;
47167;SDS011;32931;47.778;17.806;2023-06-14T13:52:06;4.68;;;2.40;;
47167;SDS011;32931;47.778;17.806;2023-06-14T13:54:32;7.50;;;2.40;;
47167;SDS011;32931;47.778;17.806;2023-06-14T13:56:59;7.28;;;2.67;;
47167;SDS011;32931;47.778;17.806;2023-06-14T13:59:25;3.22;;;2.10;;
47167;SDS011;32931;47.778;17.806;2023-06-14T14:01:51;7.55;;;2.60;;
47167;SDS011;32931;47.778;17.806;2023-06-14T14:04:17;6.80;;;2.50;;
47167;SDS011;32931;47.778;17.806;2023-06-14T14:06:44;4.68;;;2.60;;
47167;SDS011;32931;47.778;17.806;2023-06-14T14:09:11;7.82;;;2.45;;
47167;SDS011;32931;47.778;17.806;2023-06-14T14:11:37;11.25;;;2.90;;
47167;SDS011;32931;47.778;17.806;2023-06-14T14:14:03;6.53;;;2.63;;
47167;SDS011;32931;47.778;17.806;2023-06-14T14:16:30;10.32;;;2.67;;
47167;SDS011;32931;47.778;17.806;2023-06-14T14:18:56;6.10;;;2.67;;
47167;SDS011;32931;47.778;17.806;2023-06-14T14:21:23;9.13;;;2.58;;
47167;SDS011;32931;47.778;17.806;2023-06-14T14:23:49;10.45;;;2.72;;
47167;SDS011;32931;47.778;17.806;2023-06-14T14:26:15;8.93;;;2.10;;
47167;SDS011;32931;47.778;17.806;2023-06-14T14:28:41;5.85;;;2.72;;
47167;SDS011;32931;47.778;17.806;2023-06-14T14:31:07;4.43;;;2.40;;
47167;SDS011;32931;47.778;17.806;2023-06-14T14:33:34;5.63;;;2.58;;
47167;SDS011;32931;47.778;17.806;2023-06-14T14:36:00;7.72;;;2.40;;
47167;SDS011;32931;47.778;17.806;2023-06-14T14:38:29;6.05;;;2.38;;
47167;SDS011;32931;47.778;17.806;2023-06-14T14:40:55;10.45;;;3.10;;
47167;SDS011;32931;47.778;17.806;2023-06-14T14:43:21;10.10;;;2.38;;
47167;SDS011;32931;47.778;17.806;2023-06-14T14:45:48;10.63;;;2.17;;
47167;SDS011;32931;47.778;17.806;2023-06-14T14:48:14;8.38;;;2.10;;
47167;SDS011;32931;47.778;17.806;2023-06-14T14:50:40;6.68;;;2.20;;